createdAt,value
2019-01-15T00:04:13.754Z,6.23
2019-01-15T00:09:19.898Z,9.38
2019-01-15T00:14:26.043Z,6.43
2019-01-15T00:19:33.279Z,7.12
2019-01-15T00:24:39.489Z,7.40
2019-01-15T00:29:45.629Z,5.60
2019-01-15T00:34:51.711Z,12.53
2019-01-15T00:39:57.636Z,10.67
2019-01-15T00:45:04.698Z,7.20
2019-01-15T00:50:13.442Z,12.65
2019-01-15T00:55:19.383Z,7.43
2019-01-15T01:00:25.363Z,6.70
2019-01-15T01:05:31.560Z,4.20
2019-01-15T01:10:37.715Z,7.75
2019-01-15T01:15:43.831Z,6.93
2019-01-15T01:20:49.870Z,3.37
2019-01-15T01:25:55.694Z,6.08
2019-01-15T01:31:01.658Z,5.80
2019-01-15T01:36:07.672Z,6.17
2019-01-15T01:41:13.536Z,5.83
2019-01-15T01:46:19.505Z,8.10
2019-01-15T01:51:25.850Z,6.27
2019-01-15T01:56:31.878Z,3.97
2019-01-15T02:01:37.750Z,4.43
2019-01-15T02:06:43.973Z,4.27
2019-01-15T02:11:49.903Z,4.70
2019-01-15T02:16:56.688Z,5.00
2019-01-15T02:22:02.667Z,9.63
2019-01-15T02:27:10.238Z,4.87
2019-01-15T02:32:16.147Z,1.33
2019-01-15T02:37:22.349Z,5.85
2019-01-15T02:42:28.635Z,5.20
2019-01-15T02:47:34.704Z,5.07
2019-01-15T02:52:40.585Z,4.08
2019-01-15T02:57:46.934Z,3.47
2019-01-15T03:02:53.025Z,4.10
2019-01-15T03:07:58.982Z,5.20
2019-01-15T03:13:05.704Z,5.33
2019-01-15T03:18:11.670Z,3.52
2019-01-15T03:23:17.619Z,4.07
2019-01-15T03:28:23.926Z,6.37
2019-01-15T03:33:30.216Z,4.50
2019-01-15T03:38:36.486Z,2.33
2019-01-15T03:43:42.534Z,5.43
2019-01-15T03:48:48.826Z,6.37
2019-01-15T03:53:55.020Z,7.33
2019-01-15T03:59:01.058Z,6.57
2019-01-15T04:04:08.194Z,2.75
2019-01-15T04:09:14.599Z,6.50
2019-01-15T04:14:20.857Z,4.92
2019-01-15T04:19:26.919Z,3.53
2019-01-15T04:24:33.324Z,4.27
2019-01-15T04:29:40.067Z,5.53
2019-01-15T04:34:46.056Z,4.53
2019-01-15T04:39:52.254Z,4.67
2019-01-15T04:44:58.415Z,4.57
2019-01-15T04:50:06.293Z,6.23
2019-01-15T04:55:12.816Z,10.30
2019-01-15T05:00:21.446Z,6.97
2019-01-15T05:05:27.426Z,5.23
2019-01-15T05:10:33.392Z,6.47
2019-01-15T05:15:39.374Z,8.70
2019-01-15T05:20:45.152Z,6.60
2019-01-15T05:25:51.119Z,5.13
2019-01-15T05:30:56.921Z,4.30
2019-01-15T05:36:02.623Z,5.47
2019-01-15T05:41:08.623Z,3.77
2019-01-15T05:46:14.835Z,8.95
2019-01-15T05:51:32.152Z,9.48
2019-01-15T05:56:38.523Z,4.53
2019-01-15T06:01:44.826Z,6.47
2019-01-15T06:06:50.760Z,6.10
2019-01-15T06:11:56.565Z,11.90
2019-01-15T06:17:02.653Z,5.62
2019-01-15T06:22:08.897Z,5.20
2019-01-15T06:27:14.658Z,4.80
2019-01-15T06:32:20.550Z,7.62
2019-01-15T06:37:26.420Z,5.73
2019-01-15T06:42:32.722Z,8.50
2019-01-15T06:47:39.004Z,6.30
2019-01-15T06:52:45.252Z,10.60
2019-01-15T06:57:51.666Z,7.80
2019-01-15T07:02:58.090Z,11.80
2019-01-15T07:08:04.408Z,5.93
2019-01-15T07:13:10.789Z,6.70
2019-01-15T07:18:17.788Z,18.23
2019-01-15T07:23:23.747Z,7.37
2019-01-15T07:28:29.731Z,6.67
2019-01-15T07:33:35.508Z,5.47
2019-01-15T07:38:41.652Z,5.87
2019-01-15T07:43:47.639Z,7.73
2019-01-15T07:48:53.614Z,6.30
2019-01-15T07:53:59.897Z,8.60
2019-01-15T07:59:05.679Z,8.83
2019-01-15T08:04:11.978Z,8.13
2019-01-15T08:09:18.465Z,9.33
2019-01-15T08:14:24.613Z,10.73
2019-01-15T08:19:30.596Z,14.80
2019-01-15T08:24:36.666Z,7.57
2019-01-15T08:29:42.712Z,60.63
2019-01-15T08:34:48.858Z,8.70
2019-01-15T08:39:54.858Z,4.63
2019-01-15T08:45:00.752Z,67.47
2019-01-15T08:50:10.203Z,7.47
2019-01-15T08:55:16.186Z,94.77
2019-01-15T09:00:22.261Z,16.67
2019-01-15T09:05:28.038Z,8.40
2019-01-15T09:10:33.896Z,41.33
2019-01-15T09:15:39.993Z,9.20
2019-01-15T09:20:46.050Z,5.77
2019-01-15T09:25:52.130Z,5.57
2019-01-15T09:30:58.119Z,8.77
2019-01-15T09:36:04.167Z,5.28
2019-01-15T09:41:10.255Z,4.73
2019-01-15T09:46:16.120Z,12.63
2019-01-15T09:51:22.300Z,5.95
2019-01-15T09:56:28.302Z,10.05
2019-01-15T10:01:34.150Z,11.90
2019-01-15T10:06:40.265Z,9.00
2019-01-15T10:11:46.522Z,10.47
2019-01-15T10:16:52.674Z,7.75
2019-01-15T10:21:59.190Z,8.67
2019-01-15T10:27:06.694Z,7.05
2019-01-15T10:32:32.727Z,9.03
2019-01-15T10:37:39.636Z,24.97
2019-01-15T10:42:45.751Z,9.53
2019-01-15T10:47:53.226Z,3.40
2019-01-15T10:52:59.486Z,39.07
2019-01-15T10:58:05.929Z,11.60
2019-01-15T11:03:12.218Z,4.62
2019-01-15T11:08:18.001Z,5.53
2019-01-15T11:13:24.260Z,5.03
2019-01-15T11:18:30.465Z,9.07
2019-01-15T11:23:36.231Z,6.43
2019-01-15T11:28:42.389Z,5.63
2019-01-15T11:34:07.837Z,12.50
2019-01-15T11:39:13.842Z,13.10
2019-01-15T11:44:20.248Z,14.67
2019-01-15T11:49:26.572Z,7.53
2019-01-15T11:54:32.958Z,5.00
2019-01-15T11:59:39.086Z,3.80
2019-01-15T12:04:49.968Z,4.83
2019-01-15T12:10:03.523Z,3.73
2019-01-15T12:15:20.049Z,8.43
2019-01-15T12:20:30.268Z,3.60
2019-01-15T12:25:38.204Z,5.57
2019-01-15T12:30:45.839Z,3.63
2019-01-15T12:36:02.517Z,2.70
2019-01-15T12:41:13.233Z,4.60
2019-01-15T12:46:37.527Z,4.67
2019-01-15T12:52:01.636Z,3.47
2019-01-15T12:57:09.406Z,3.60
2019-01-15T13:02:29.800Z,6.63
2019-01-15T13:07:37.459Z,2.70
2019-01-15T13:12:45.300Z,3.80
2019-01-15T13:18:08.668Z,8.77
2019-01-15T13:23:16.458Z,5.87
2019-01-15T13:28:27.172Z,6.50
2019-01-15T13:33:41.117Z,4.83
2019-01-15T13:39:00.387Z,4.23
2019-01-15T13:44:13.793Z,6.07
2019-01-15T13:49:21.576Z,10.40
2019-01-15T13:54:27.649Z,6.07
2019-01-15T13:59:38.127Z,7.60
2019-01-15T14:04:48.679Z,19.10
2019-01-15T14:10:13.114Z,12.73
2019-01-15T14:15:36.583Z,7.30
2019-01-15T14:20:44.207Z,8.03
2019-01-15T14:26:09.581Z,9.47
2019-01-15T14:31:32.506Z,8.00
2019-01-15T14:36:43.886Z,7.50
2019-01-15T14:41:57.309Z,9.20
2019-01-15T14:47:09.991Z,7.23
2019-01-15T14:52:20.756Z,37.97
2019-01-15T14:57:43.320Z,8.17
2019-01-15T15:02:56.872Z,11.93
2019-01-15T15:08:20.316Z,11.70
2019-01-15T15:13:30.838Z,14.97
2019-01-15T15:18:38.327Z,7.37
2019-01-15T15:23:52.234Z,13.13
2019-01-15T15:29:02.828Z,7.40
2019-01-15T15:34:10.592Z,17.10
2019-01-15T15:39:18.325Z,10.55
2019-01-15T15:44:41.865Z,9.47
2019-01-15T15:49:49.561Z,8.10
2019-01-15T15:55:06.020Z,11.83
2019-01-15T16:00:22.973Z,19.63
2019-01-15T16:05:46.743Z,20.10
2019-01-15T16:11:00.417Z,12.87
2019-01-15T16:16:23.901Z,12.87
2019-01-15T16:21:47.693Z,55.47
2019-01-15T16:27:10.749Z,57.33
2019-01-15T16:32:24.369Z,53.83
2019-01-15T16:37:38.292Z,38.77
2019-01-15T16:42:52.119Z,31.80
2019-01-15T16:47:59.852Z,36.93
2019-01-15T16:53:23.665Z,85.67
2019-01-15T16:58:47.577Z,34.17
2019-01-15T17:03:58.412Z,34.43
2019-01-15T17:09:08.475Z,63.83
2019-01-15T17:14:22.224Z,123.38
2019-01-15T17:19:41.717Z,28.03
2019-01-15T17:24:49.762Z,31.20
2019-01-15T17:30:09.758Z,45.80
2019-01-15T17:35:20.021Z,39.90
2019-01-15T17:40:45.542Z,36.43
2019-01-15T17:45:53.158Z,63.47
2019-01-15T17:51:16.755Z,31.03
2019-01-15T17:56:27.220Z,54.25
2019-01-15T18:01:52.959Z,88.73
2019-01-15T18:07:00.454Z,75.47
2019-01-15T18:12:06.543Z,62.80
2019-01-15T18:17:14.606Z,39.35
2019-01-15T18:22:22.662Z,49.70
2019-01-15T18:27:42.795Z,29.23
2019-01-15T18:32:56.553Z,37.40
2019-01-15T18:38:04.364Z,27.67
2019-01-15T18:43:13.220Z,30.73
2019-01-15T18:48:29.994Z,31.83
2019-01-15T18:53:40.351Z,36.80
2019-01-15T18:59:06.752Z,38.97
2019-01-15T19:04:31.888Z,51.23
2019-01-15T19:09:58.441Z,33.50
2019-01-15T19:15:09.178Z,44.63
2019-01-15T19:20:22.466Z,70.17
2019-01-15T19:25:33.172Z,33.93
2019-01-15T19:30:40.769Z,95.43
2019-01-15T19:36:04.573Z,49.90
2019-01-15T19:41:43.403Z,47.10
2019-01-15T19:47:10.692Z,57.93
2019-01-15T19:52:19.659Z,41.30
2019-01-15T19:57:36.625Z,43.30
2019-01-15T20:02:44.378Z,38.60
2019-01-15T20:07:54.855Z,25.63
2019-01-15T20:13:02.775Z,15.23
2019-01-15T20:18:10.570Z,20.63
2019-01-15T20:23:20.937Z,19.40
2019-01-15T20:28:28.451Z,13.73
2019-01-15T20:33:51.251Z,26.00
2019-01-15T20:38:58.922Z,18.37
2019-01-15T20:44:16.730Z,12.50
2019-01-15T20:49:40.981Z,18.63
2019-01-15T20:54:56.168Z,10.73
2019-01-15T21:00:18.645Z,13.30
2019-01-15T21:05:31.597Z,14.47
2019-01-15T21:10:45.251Z,19.50
2019-01-15T21:16:11.180Z,19.20
2019-01-15T21:21:18.539Z,14.65
2019-01-15T21:26:42.693Z,9.53
2019-01-15T21:31:56.209Z,17.60
2019-01-15T21:37:20.236Z,13.53
2019-01-15T21:42:43.917Z,8.67
2019-01-15T21:47:51.496Z,4.13
2019-01-15T21:53:14.107Z,5.33
2019-01-15T21:58:39.627Z,5.13
2019-01-15T22:03:49.711Z,4.90
2019-01-15T22:09:13.305Z,9.37
2019-01-15T22:14:37.352Z,6.33
2019-01-15T22:19:54.283Z,4.40
2019-01-15T22:25:05.981Z,3.77
2019-01-15T22:30:16.580Z,4.10
2019-01-15T22:35:33.333Z,3.17
2019-01-15T22:40:41.249Z,1.17
2019-01-15T22:46:05.547Z,1.50
2019-01-15T22:51:19.634Z,1.70
2019-01-15T22:56:36.108Z,3.67
2019-01-15T23:01:43.813Z,1.90
2019-01-15T23:06:55.068Z,26.63
2019-01-15T23:12:03.232Z,6.50
2019-01-15T23:17:16.890Z,12.00
2019-01-15T23:22:41.123Z,7.73
2019-01-15T23:27:52.050Z,4.30
2019-01-15T23:33:18.380Z,6.77
2019-01-15T23:38:42.481Z,40.33
2019-01-15T23:44:02.109Z,4.43
2019-01-15T23:49:26.239Z,6.80
2019-01-15T23:54:50.455Z,13.70
